createdAt,value
2023-11-30T00:00:07.542Z,100800.22
2023-11-30T00:02:34.149Z,100777.13
2023-11-30T00:05:00.702Z,100796.69
2023-11-30T00:07:27.265Z,100772.06
2023-11-30T00:09:53.871Z,100770.63
2023-11-30T00:12:20.497Z,100793.16
2023-11-30T00:14:47.078Z,100774.34
2023-11-30T00:17:13.622Z,100792.44
2023-11-30T00:19:40.147Z,100798.09
2023-11-30T00:22:06.754Z,100801.13
2023-11-30T00:24:33.345Z,100808.56
2023-11-30T00:26:59.909Z,100806.13
2023-11-30T00:29:26.470Z,100801.28
2023-11-30T00:31:53.042Z,100809.06
2023-11-30T00:34:19.602Z,100807.72
2023-11-30T00:36:46.125Z,100816.31
2023-11-30T00:39:12.704Z,100802.84
2023-11-30T00:41:39.571Z,100795.59
2023-11-30T00:44:06.093Z,100788.19
2023-11-30T00:46:32.689Z,100793.28
2023-11-30T00:48:59.275Z,100770.59
2023-11-30T00:51:25.918Z,100768.44
2023-11-30T00:53:52.602Z,100757.63
2023-11-30T00:56:19.135Z,100768.16
2023-11-30T00:58:45.626Z,100771.06
2023-11-30T01:01:12.106Z,100761.13
2023-11-30T01:03:38.781Z,100736.56
2023-11-30T01:06:05.658Z,100712.78
2023-11-30T01:08:32.347Z,100707.50
2023-11-30T01:10:58.996Z,100700.22
2023-11-30T01:13:27.561Z,100687.00
2023-11-30T01:15:54.088Z,100680.53
2023-11-30T01:18:20.801Z,100659.03
2023-11-30T01:20:47.582Z,100643.25
2023-11-30T01:23:14.417Z,100632.09
2023-11-30T01:25:41.010Z,100595.13
2023-11-30T01:28:07.608Z,100607.56
2023-11-30T01:30:34.121Z,100604.72
2023-11-30T01:33:00.820Z,100589.06
2023-11-30T01:35:27.395Z,100592.50
2023-11-30T01:37:53.913Z,100573.31
2023-11-30T01:40:20.416Z,100573.13
2023-11-30T01:42:46.964Z,100570.28
2023-11-30T01:45:13.619Z,100588.63
2023-11-30T01:47:40.457Z,100591.25
2023-11-30T01:50:07.411Z,100595.97
2023-11-30T01:52:34.455Z,100586.91
2023-11-30T01:55:03.109Z,100590.47
2023-11-30T01:57:30.512Z,100583.00
2023-11-30T01:59:57.316Z,100584.22
2023-11-30T02:02:24.304Z,100580.44
2023-11-30T02:04:54.036Z,100562.72
2023-11-30T02:07:20.691Z,100567.09
2023-11-30T02:09:47.377Z,100556.38
2023-11-30T02:12:13.994Z,100551.78
2023-11-30T02:14:40.513Z,100565.91
2023-11-30T02:17:07.042Z,100548.22
2023-11-30T02:19:33.579Z,100547.00
2023-11-30T02:22:00.196Z,100550.41
2023-11-30T02:24:26.848Z,100537.66
2023-11-30T02:26:53.544Z,100543.03
2023-11-30T02:29:20.131Z,100535.53
2023-11-30T02:31:46.834Z,100524.91
2023-11-30T02:34:13.533Z,100514.06
2023-11-30T02:36:40.011Z,100506.31
2023-11-30T02:39:06.769Z,100513.69
2023-11-30T02:41:33.319Z,100483.47
2023-11-30T02:44:00.413Z,100471.84
2023-11-30T02:46:26.991Z,100453.81
2023-11-30T02:48:53.675Z,100442.53
2023-11-30T02:51:20.324Z,100467.16
2023-11-30T02:53:46.897Z,100447.06
2023-11-30T02:56:13.426Z,100453.81
2023-11-30T02:58:40.012Z,100467.56
2023-11-30T03:01:06.620Z,100474.44
2023-11-30T03:03:33.368Z,100455.09
2023-11-30T03:06:00.080Z,100442.88
2023-11-30T03:08:26.636Z,100423.06
2023-11-30T03:10:53.441Z,100401.38
2023-11-30T03:13:19.933Z,100401.59
2023-11-30T03:15:47.732Z,100390.31
2023-11-30T03:18:14.647Z,100387.06
2023-11-30T03:20:41.328Z,100395.94
2023-11-30T03:23:07.944Z,100397.84
2023-11-30T03:25:34.519Z,100376.41
2023-11-30T03:28:01.070Z,100365.47
2023-11-30T03:30:27.879Z,100368.47
2023-11-30T03:32:56.645Z,100355.81
2023-11-30T03:35:23.216Z,100364.59
2023-11-30T03:37:51.285Z,100349.03
2023-11-30T03:40:17.791Z,100337.63
2023-11-30T03:42:44.290Z,100330.41
2023-11-30T03:45:10.923Z,100338.84
2023-11-30T03:47:37.614Z,100317.97
2023-11-30T03:50:04.376Z,100318.66
2023-11-30T03:52:30.953Z,100306.25
2023-11-30T03:54:57.491Z,100301.44
2023-11-30T03:57:24.112Z,100293.66
2023-11-30T03:59:51.130Z,100285.19
2023-11-30T04:02:17.975Z,100287.06
2023-11-30T04:04:44.686Z,100258.84
2023-11-30T04:07:11.329Z,100259.44
2023-11-30T04:09:38.202Z,100244.41
2023-11-30T04:12:05.257Z,100229.09
2023-11-30T04:14:31.797Z,100218.38
2023-11-30T04:17:00.782Z,100204.75
2023-11-30T04:19:28.987Z,100207.53
2023-11-30T04:21:55.491Z,100187.63
2023-11-30T04:24:22.091Z,100182.06
2023-11-30T04:26:48.739Z,100162.75
2023-11-30T04:29:15.253Z,100184.75
2023-11-30T04:31:41.838Z,100175.59
2023-11-30T04:34:08.340Z,100170.31
2023-11-30T04:36:34.914Z,100152.94
2023-11-30T04:39:01.540Z,100158.16
2023-11-30T04:41:28.064Z,100164.03
2023-11-30T04:43:54.561Z,100176.31
2023-11-30T04:46:21.085Z,100179.09
2023-11-30T04:48:47.800Z,100180.53
2023-11-30T04:51:14.434Z,100190.28
2023-11-30T04:53:40.984Z,100190.78
2023-11-30T04:56:07.990Z,100184.94
2023-11-30T04:58:34.545Z,100207.38
2023-11-30T05:01:01.065Z,100199.50
2023-11-30T05:03:27.735Z,100219.84
2023-11-30T05:05:54.483Z,100212.22
2023-11-30T05:08:21.036Z,100200.03
2023-11-30T05:10:47.516Z,100211.28
2023-11-30T05:13:14.091Z,100217.63
2023-11-30T05:15:40.799Z,100176.19
2023-11-30T05:18:08.040Z,100152.44
2023-11-30T05:20:34.672Z,100161.66
2023-11-30T05:23:01.337Z,100153.38
2023-11-30T05:25:28.584Z,100173.81
2023-11-30T05:27:55.232Z,100142.59
2023-11-30T05:30:21.790Z,100128.41
2023-11-30T05:32:48.306Z,100145.22
2023-11-30T05:35:14.867Z,100148.53
2023-11-30T05:37:41.432Z,100161.53
2023-11-30T05:40:08.689Z,100135.03
2023-11-30T05:42:35.276Z,100148.53
2023-11-30T05:45:02.186Z,100127.53
2023-11-30T05:47:28.741Z,100106.41
2023-11-30T05:49:55.416Z,100099.78
2023-11-30T05:52:22.021Z,100088.41
2023-11-30T05:54:48.566Z,100075.78
2023-11-30T05:57:15.612Z,100053.16
2023-11-30T05:59:42.378Z,100022.06
2023-11-30T06:02:08.970Z,99988.94
2023-11-30T06:04:35.724Z,99984.16
2023-11-30T06:07:02.278Z,99968.56
2023-11-30T06:09:28.885Z,99965.16
2023-11-30T06:11:55.484Z,99947.25
2023-11-30T06:14:22.121Z,99932.50
2023-11-30T06:16:48.767Z,99927.59
2023-11-30T06:19:15.379Z,99899.34
2023-11-30T06:21:41.889Z,99880.63
2023-11-30T06:24:08.431Z,99879.84
2023-11-30T06:26:35.044Z,99870.06
2023-11-30T06:29:01.647Z,99867.16
2023-11-30T06:31:28.181Z,99855.63
2023-11-30T06:33:55.162Z,99836.97
2023-11-30T06:36:21.722Z,99840.53
2023-11-30T06:38:48.351Z,99839.53
2023-11-30T06:41:14.960Z,99801.22
2023-11-30T06:43:41.689Z,99819.16
2023-11-30T06:46:08.488Z,99915.53
2023-11-30T06:48:35.203Z,99899.38
2023-11-30T06:51:01.725Z,99853.94
2023-11-30T06:53:28.259Z,99918.56
2023-11-30T06:55:54.818Z,99924.19
2023-11-30T06:58:21.317Z,99905.66
2023-11-30T07:00:47.983Z,99744.94
2023-11-30T07:03:14.803Z,99772.03
2023-11-30T07:05:41.538Z,99862.75
2023-11-30T07:08:08.221Z,99853.31
2023-11-30T07:10:34.745Z,99744.97
2023-11-30T07:13:01.233Z,99703.28
2023-11-30T07:15:27.922Z,99721.38
2023-11-30T07:17:54.572Z,99643.50
2023-11-30T07:20:21.166Z,99717.63
2023-11-30T07:22:47.704Z,99814.22
2023-11-30T07:25:14.205Z,99844.63
2023-11-30T07:27:40.713Z,99816.66
2023-11-30T07:30:10.867Z,99896.50
2023-11-30T07:32:37.856Z,99906.56
2023-11-30T07:35:05.524Z,99924.09
2023-11-30T07:37:32.063Z,99954.13
2023-11-30T07:39:58.596Z,99968.00
2023-11-30T07:42:29.925Z,99946.69
2023-11-30T07:45:02.320Z,99928.03
2023-11-30T07:47:29.544Z,99899.03
2023-11-30T07:49:56.169Z,99896.41
2023-11-30T07:52:22.787Z,99892.59
2023-11-30T07:54:49.363Z,99866.97
2023-11-30T07:57:15.969Z,99833.03
2023-11-30T07:59:42.532Z,99791.22
2023-11-30T08:02:09.047Z,99764.13
2023-11-30T08:04:37.566Z,99754.75
2023-11-30T08:07:04.744Z,99732.97
2023-11-30T08:09:31.295Z,99735.13
2023-11-30T08:11:57.839Z,99741.13
2023-11-30T08:14:24.366Z,99739.47
2023-11-30T08:16:50.878Z,99742.31
2023-11-30T08:19:17.457Z,99738.00
2023-11-30T08:21:43.922Z,99701.16
2023-11-30T08:24:10.522Z,99654.72
2023-11-30T08:26:37.144Z,99622.31
2023-11-30T08:29:04.138Z,99575.06
2023-11-30T08:31:30.705Z,99548.31
2023-11-30T08:33:57.360Z,99496.16
2023-11-30T08:36:24.143Z,99467.06
2023-11-30T08:38:50.744Z,99440.94
2023-11-30T08:41:17.404Z,99417.84
2023-11-30T08:43:43.962Z,99387.22
2023-11-30T08:46:10.572Z,99363.31
2023-11-30T08:48:37.168Z,99342.59
2023-11-30T08:51:03.805Z,99324.13
2023-11-30T08:53:30.470Z,99308.25
2023-11-30T08:55:57.043Z,99279.63
2023-11-30T08:58:23.543Z,99256.88
2023-11-30T09:00:50.085Z,99225.03
2023-11-30T09:03:16.674Z,99202.56
2023-11-30T09:05:43.258Z,99172.16
2023-11-30T09:08:09.769Z,99168.13
2023-11-30T09:10:36.284Z,99153.19
2023-11-30T09:13:02.868Z,99131.44
2023-11-30T09:15:32.947Z,99073.81
2023-11-30T09:17:59.634Z,99040.53
2023-11-30T09:20:26.162Z,99010.41
2023-11-30T09:22:52.762Z,98977.53
2023-11-30T09:25:19.257Z,98936.81
2023-11-30T09:27:46.123Z,98889.47
2023-11-30T09:30:13.710Z,98895.22
2023-11-30T09:32:40.484Z,98873.88
2023-11-30T09:35:07.342Z,98831.13
2023-11-30T09:37:34.197Z,98835.22
2023-11-30T09:40:01.250Z,98822.53
2023-11-30T09:42:29.356Z,98831.75
2023-11-30T09:45:00.027Z,98830.41
2023-11-30T09:47:27.765Z,98805.34
2023-11-30T09:49:55.628Z,98789.38
2023-11-30T09:52:22.975Z,98754.59
2023-11-30T09:54:50.319Z,98742.59
2023-11-30T09:57:17.069Z,98748.25
2023-11-30T09:59:43.689Z,98726.16
2023-11-30T10:02:11.224Z,98724.47
2023-11-30T10:04:40.894Z,98723.69
2023-11-30T10:07:08.899Z,98704.16
2023-11-30T10:09:35.844Z,98686.16
2023-11-30T10:12:02.670Z,98656.59
2023-11-30T10:14:29.255Z,98643.53
2023-11-30T10:16:56.010Z,98640.22
2023-11-30T10:19:23.955Z,98605.59
2023-11-30T10:21:51.668Z,98574.66
2023-11-30T10:24:19.003Z,98560.75
2023-11-30T10:26:52.149Z,98566.63
2023-11-30T10:29:24.875Z,98542.81
2023-11-30T10:31:55.345Z,98529.91
2023-11-30T10:34:28.938Z,98527.53
2023-11-30T10:36:58.500Z,98527.34
2023-11-30T10:39:29.138Z,98532.72
2023-11-30T10:41:56.864Z,98536.84
2023-11-30T10:44:28.108Z,98496.75
2023-11-30T10:46:56.937Z,98484.75
2023-11-30T10:49:25.559Z,98487.91
2023-11-30T10:51:57.239Z,98477.66
2023-11-30T10:54:52.818Z,98476.00
2023-11-30T10:57:21.060Z,98465.34
2023-11-30T10:59:48.624Z,98464.00
2023-11-30T11:02:15.867Z,98466.09
2023-11-30T11:04:44.505Z,98440.28
2023-11-30T11:07:16.591Z,98446.06
2023-11-30T11:09:55.095Z,98402.81
2023-11-30T11:12:26.969Z,98399.19
2023-11-30T11:15:06.784Z,98371.84
2023-11-30T11:17:34.393Z,98346.97
2023-11-30T11:20:02.251Z,98309.84
2023-11-30T11:22:29.488Z,98275.56
2023-11-30T11:25:02.948Z,98255.13
2023-11-30T11:27:32.181Z,98232.50
2023-11-30T11:30:03.066Z,98248.47
2023-11-30T11:32:33.570Z,98326.00
2023-11-30T11:35:01.783Z,98228.75
2023-11-30T11:37:31.035Z,98215.31
2023-11-30T11:40:00.699Z,98187.72
2023-11-30T11:42:28.210Z,98171.16
2023-11-30T11:44:56.068Z,98152.16
2023-11-30T11:47:24.061Z,98129.19
2023-11-30T11:49:51.316Z,98107.88
2023-11-30T11:52:22.994Z,98016.44
2023-11-30T11:55:02.768Z,98010.06
2023-11-30T11:57:39.100Z,98022.28
2023-11-30T12:00:13.553Z,98007.84
2023-11-30T12:02:40.385Z,97993.91
2023-11-30T12:05:11.597Z,98002.13
2023-11-30T12:08:07.355Z,97994.34
2023-11-30T12:10:38.186Z,97963.72
2023-11-30T12:13:04.696Z,97963.50
2023-11-30T12:15:31.295Z,97923.06
2023-11-30T12:17:58.090Z,97933.34
2023-11-30T12:20:25.787Z,97924.22
2023-11-30T12:22:53.271Z,97915.91
2023-11-30T12:25:20.889Z,97929.78
2023-11-30T12:27:48.451Z,97894.63
2023-11-30T12:30:16.760Z,97887.22
2023-11-30T12:32:44.471Z,97874.50
2023-11-30T12:35:11.385Z,97872.47
2023-11-30T12:37:41.097Z,97857.06
2023-11-30T12:40:10.000Z,97871.97
2023-11-30T12:42:38.331Z,97865.41
2023-11-30T12:45:06.418Z,97845.69
2023-11-30T12:47:33.610Z,97874.22
2023-11-30T12:50:01.177Z,97872.94
2023-11-30T12:52:28.814Z,97871.28
2023-11-30T12:54:56.458Z,97897.28
2023-11-30T12:57:26.357Z,97934.34
2023-11-30T12:59:53.642Z,97989.34
2023-11-30T13:02:21.030Z,98045.44
2023-11-30T13:04:47.776Z,98096.56
2023-11-30T13:07:15.142Z,98115.78
2023-11-30T13:09:42.248Z,98153.66
2023-11-30T13:12:09.834Z,98198.53
2023-11-30T13:14:37.073Z,98253.00
2023-11-30T13:17:04.191Z,98283.25
2023-11-30T13:19:31.647Z,98331.31
2023-11-30T13:21:58.974Z,98387.41
2023-11-30T13:24:27.028Z,98420.22
2023-11-30T13:26:54.736Z,98441.84
2023-11-30T13:29:22.416Z,98483.94
2023-11-30T13:31:49.926Z,98649.13
2023-11-30T13:34:17.366Z,98679.88
2023-11-30T13:36:46.096Z,98703.84
2023-11-30T13:39:13.209Z,98768.09
2023-11-30T13:41:40.152Z,98846.47
2023-11-30T13:44:07.276Z,98844.28
2023-11-30T13:46:34.434Z,98870.06
2023-11-30T13:49:01.617Z,98940.56
2023-11-30T13:51:28.538Z,99014.63
2023-11-30T13:53:55.696Z,99084.50
2023-11-30T13:56:23.068Z,99117.41
2023-11-30T13:58:49.813Z,99157.63
2023-11-30T14:01:16.917Z,99303.91
2023-11-30T14:03:44.434Z,99387.97
2023-11-30T14:06:11.306Z,99480.16
2023-11-30T14:08:40.176Z,99565.03
2023-11-30T14:11:08.215Z,99582.16
2023-11-30T14:13:35.672Z,99655.44
2023-11-30T14:16:03.148Z,99690.44
2023-11-30T14:18:29.878Z,99791.00
2023-11-30T14:20:56.641Z,99850.13
2023-11-30T14:23:24.228Z,99838.75
2023-11-30T14:25:50.899Z,99881.38
2023-11-30T14:28:18.749Z,99959.28
2023-11-30T14:30:47.531Z,99895.59
2023-11-30T14:33:15.238Z,99995.16
2023-11-30T14:35:42.681Z,100108.75
2023-11-30T14:38:10.245Z,100159.16
2023-11-30T14:40:38.237Z,100200.03
2023-11-30T14:43:05.799Z,100248.63
2023-11-30T14:45:33.080Z,100247.91
2023-11-30T14:47:59.885Z,100105.22
2023-11-30T14:50:27.142Z,100060.31
2023-11-30T14:52:55.283Z,99877.69
2023-11-30T14:55:22.752Z,100042.78
2023-11-30T14:57:50.648Z,100029.00
2023-11-30T15:00:18.580Z,100054.34
2023-11-30T15:02:47.201Z,99980.41
2023-11-30T15:05:14.922Z,100090.41
2023-11-30T15:07:42.871Z,100179.38
2023-11-30T15:10:10.625Z,100226.75
2023-11-30T15:12:38.526Z,100305.00
2023-11-30T15:15:06.527Z,100245.38
2023-11-30T15:17:34.645Z,100295.94
2023-11-30T15:20:02.489Z,100392.53
2023-11-30T15:22:29.962Z,100432.34
2023-11-30T15:24:57.387Z,100582.44
2023-11-30T15:27:24.799Z,100743.63
2023-11-30T15:29:52.023Z,100689.47
2023-11-30T15:32:19.554Z,100887.66
2023-11-30T15:34:48.025Z,101166.13
2023-11-30T15:37:15.813Z,101447.63
2023-11-30T15:39:45.688Z,101196.63
2023-11-30T15:42:13.027Z,101105.06
2023-11-30T15:44:42.457Z,101100.31
2023-11-30T15:47:09.830Z,101089.38
2023-11-30T15:49:37.425Z,101113.22
2023-11-30T15:52:04.262Z,101067.28
2023-11-30T15:54:31.524Z,101024.47
2023-11-30T15:56:58.212Z,101070.03
2023-11-30T15:59:24.937Z,101010.50
2023-11-30T16:01:52.327Z,100925.25
2023-11-30T16:04:19.063Z,100900.44
2023-11-30T16:06:48.009Z,100874.78
2023-11-30T16:09:15.286Z,100966.28
2023-11-30T16:11:41.846Z,100911.81
2023-11-30T16:14:08.479Z,100862.59
2023-11-30T16:16:35.187Z,100876.78
2023-11-30T16:19:01.802Z,100888.84
2023-11-30T16:21:28.875Z,100941.88
2023-11-30T16:23:55.532Z,100970.34
2023-11-30T16:26:23.635Z,101026.19
2023-11-30T16:28:50.308Z,101093.25
2023-11-30T16:31:17.030Z,101115.63
2023-11-30T16:33:44.007Z,101101.00
2023-11-30T16:36:11.019Z,101161.88
2023-11-30T16:38:38.054Z,101233.28
2023-11-30T16:41:04.922Z,101187.94
2023-11-30T16:43:31.522Z,101269.38
2023-11-30T16:45:58.248Z,101265.59
2023-11-30T16:48:24.845Z,101350.97
2023-11-30T16:50:51.471Z,101372.22
2023-11-30T16:53:18.027Z,101354.22
2023-11-30T16:55:44.658Z,101398.94
2023-11-30T16:58:11.238Z,101274.03
2023-11-30T17:00:37.785Z,101310.97
2023-11-30T17:03:04.510Z,101382.44
2023-11-30T17:05:31.248Z,101496.13
2023-11-30T17:07:57.938Z,101345.78
2023-11-30T17:10:24.500Z,101317.09
2023-11-30T17:12:51.187Z,101405.13
2023-11-30T17:15:17.752Z,101439.78
2023-11-30T17:17:44.660Z,101446.34
2023-11-30T17:20:12.026Z,101570.06
2023-11-30T17:22:38.554Z,101546.19
2023-11-30T17:25:05.466Z,101511.66
2023-11-30T17:27:32.173Z,101444.84
2023-11-30T17:29:58.669Z,101502.03
2023-11-30T17:32:25.325Z,101571.06
2023-11-30T17:34:52.181Z,101480.16
2023-11-30T17:37:18.848Z,101472.78
2023-11-30T17:39:45.454Z,101321.81
2023-11-30T17:42:12.077Z,101203.69
2023-11-30T17:44:38.637Z,101048.88
2023-11-30T17:47:05.296Z,100923.03
2023-11-30T17:49:31.933Z,100840.38
2023-11-30T17:51:59.087Z,100744.50
2023-11-30T17:54:25.676Z,100717.66
2023-11-30T17:56:52.280Z,100642.03
2023-11-30T17:59:18.791Z,100681.19
2023-11-30T18:01:45.350Z,100685.44
2023-11-30T18:04:11.974Z,100755.41
2023-11-30T18:06:38.504Z,100743.41
2023-11-30T18:09:05.044Z,100773.81
2023-11-30T18:11:31.523Z,100820.38
2023-11-30T18:13:58.016Z,100881.94
2023-11-30T18:16:24.565Z,100887.53
2023-11-30T18:18:51.223Z,100965.06
2023-11-30T18:21:17.868Z,100994.13
2023-11-30T18:23:44.548Z,101039.53
2023-11-30T18:26:11.064Z,101133.97
2023-11-30T18:28:37.655Z,101140.75
2023-11-30T18:31:12.107Z,101199.16
2023-11-30T18:33:46.866Z,101217.94
2023-11-30T18:36:13.732Z,101213.66
2023-11-30T18:38:50.126Z,101275.25
2023-11-30T18:41:21.593Z,101296.44
2023-11-30T18:43:49.793Z,101294.97
2023-11-30T18:46:16.647Z,101359.91
2023-11-30T18:48:43.498Z,101385.66
2023-11-30T18:51:11.350Z,101438.41
2023-11-30T18:53:38.052Z,101523.38
2023-11-30T18:56:05.141Z,101558.78
2023-11-30T21:39:59.554Z,59071.34
2023-11-30T21:54:42.609Z,59071.34
2023-11-30T22:06:56.210Z,59071.34
2023-11-30T22:24:03.686Z,59071.34
2023-11-30T22:26:30.291Z,59071.34
2023-11-30T22:28:57.050Z,59071.34
2023-11-30T22:33:50.205Z,59071.34
2023-11-30T22:36:16.760Z,59071.34
2023-11-30T22:43:39.656Z,59071.34
2023-11-30T22:46:06.518Z,59071.34
2023-11-30T22:53:29.374Z,59071.34
2023-11-30T22:58:22.717Z,59071.34
2023-11-30T23:00:49.421Z,59071.34
2023-11-30T23:05:42.824Z,59071.34
2023-11-30T23:13:02.430Z,59071.34
2023-11-30T23:17:55.612Z,59071.34
2023-11-30T23:22:48.584Z,59071.34
2023-11-30T23:25:15.219Z,59071.34
2023-11-30T23:32:34.991Z,59071.34
2023-11-30T23:37:27.923Z,59071.34
2023-11-30T23:42:20.964Z,59071.34
2023-11-30T23:47:14.022Z,59071.34
